sensor_id;sensor_type;location;lat;lon;timestamp;P1;durP1;ratioP1;P2;durP2;ratioP2
62707;SDS011;48769;51.624;5.886;2023-10-13T00:00:26;45.28;;;30.13;;
62707;SDS011;48769;51.624;5.886;2023-10-13T00:02:58;47.65;;;29.73;;
62707;SDS011;48769;51.624;5.886;2023-10-13T00:05:30;42.42;;;29.52;;
62707;SDS011;48769;51.624;5.886;2023-10-13T00:08:03;42.90;;;28.25;;
62707;SDS011;48769;51.624;5.886;2023-10-13T00:10:43;44.10;;;28.75;;
62707;SDS011;48769;51.624;5.886;2023-10-13T00:13:09;51.20;;;28.70;;
62707;SDS011;48769;51.624;5.886;2023-10-13T00:15:38;36.97;;;26.90;;
62707;SDS011;48769;51.624;5.886;2023-10-13T00:20:39;39.85;;;27.55;;
62707;SDS011;48769;51.624;5.886;2023-10-13T00:23:06;37.00;;;25.75;;
62707;SDS011;48769;51.624;5.886;2023-10-13T00:25:31;39.90;;;26.88;;
62707;SDS011;48769;51.624;5.886;2023-10-13T00:28:08;36.33;;;25.20;;
62707;SDS011;48769;51.624;5.886;2023-10-13T00:30:34;36.60;;;25.60;;
62707;SDS011;48769;51.624;5.886;2023-10-13T00:33:00;34.00;;;24.48;;
62707;SDS011;48769;51.624;5.886;2023-10-13T00:35:29;44.33;;;25.35;;
62707;SDS011;48769;51.624;5.886;2023-10-13T00:38:04;39.20;;;24.05;;
62707;SDS011;48769;51.624;5.886;2023-10-13T00:40:38;39.15;;;24.27;;
62707;SDS011;48769;51.624;5.886;2023-10-13T00:43:04;40.83;;;24.00;;
62707;SDS011;48769;51.624;5.886;2023-10-13T00:45:56;41.83;;;25.48;;
62707;SDS011;48769;51.624;5.886;2023-10-13T00:48:26;36.83;;;23.77;;
62707;SDS011;48769;51.624;5.886;2023-10-13T00:50:58;41.10;;;24.77;;
62707;SDS011;48769;51.624;5.886;2023-10-13T00:53:28;36.95;;;24.98;;
62707;SDS011;48769;51.624;5.886;2023-10-13T00:55:58;41.67;;;26.20;;
62707;SDS011;48769;51.624;5.886;2023-10-13T00:58:33;34.30;;;23.88;;
62707;SDS011;48769;51.624;5.886;2023-10-13T01:01:02;45.65;;;26.00;;
62707;SDS011;48769;51.624;5.886;2023-10-13T01:03:43;43.22;;;25.85;;
62707;SDS011;48769;51.624;5.886;2023-10-13T01:06:10;38.45;;;25.35;;
62707;SDS011;48769;51.624;5.886;2023-10-13T01:08:37;38.58;;;24.38;;
62707;SDS011;48769;51.624;5.886;2023-10-13T01:11:03;41.03;;;24.85;;
62707;SDS011;48769;51.624;5.886;2023-10-13T01:13:32;47.17;;;25.92;;
62707;SDS011;48769;51.624;5.886;2023-10-13T01:16:07;40.28;;;24.80;;
62707;SDS011;48769;51.624;5.886;2023-10-13T01:18:33;38.35;;;23.73;;
62707;SDS011;48769;51.624;5.886;2023-10-13T01:21:12;42.38;;;24.42;;
62707;SDS011;48769;51.624;5.886;2023-10-13T01:23:40;33.72;;;24.13;;
62707;SDS011;48769;51.624;5.886;2023-10-13T01:26:07;39.13;;;24.20;;
62707;SDS011;48769;51.624;5.886;2023-10-13T01:28:34;36.17;;;23.30;;
62707;SDS011;48769;51.624;5.886;2023-10-13T01:31:12;36.97;;;22.95;;
62707;SDS011;48769;51.624;5.886;2023-10-13T01:34:00;41.03;;;23.85;;
62707;SDS011;48769;51.624;5.886;2023-10-13T01:36:26;34.80;;;22.05;;
62707;SDS011;48769;51.624;5.886;2023-10-13T01:38:53;35.42;;;21.90;;
62707;SDS011;48769;51.624;5.886;2023-10-13T01:41:19;35.60;;;21.52;;
62707;SDS011;48769;51.624;5.886;2023-10-13T01:43:45;32.22;;;19.52;;
62707;SDS011;48769;51.624;5.886;2023-10-13T01:46:11;37.88;;;20.60;;
62707;SDS011;48769;51.624;5.886;2023-10-13T01:48:40;33.33;;;19.42;;
62707;SDS011;48769;51.624;5.886;2023-10-13T01:51:06;32.42;;;17.73;;
62707;SDS011;48769;51.624;5.886;2023-10-13T01:53:35;38.90;;;19.48;;
62707;SDS011;48769;51.624;5.886;2023-10-13T01:56:04;31.20;;;19.52;;
62707;SDS011;48769;51.624;5.886;2023-10-13T01:58:35;31.10;;;17.85;;
62707;SDS011;48769;51.624;5.886;2023-10-13T02:01:01;31.80;;;18.05;;
62707;SDS011;48769;51.624;5.886;2023-10-13T02:03:27;30.52;;;18.95;;
62707;SDS011;48769;51.624;5.886;2023-10-13T02:05:55;31.20;;;18.83;;
62707;SDS011;48769;51.624;5.886;2023-10-13T02:08:23;27.95;;;18.52;;
62707;SDS011;48769;51.624;5.886;2023-10-13T02:10:58;34.97;;;19.58;;
62707;SDS011;48769;51.624;5.886;2023-10-13T02:13:26;29.35;;;18.75;;
62707;SDS011;48769;51.624;5.886;2023-10-13T02:15:56;29.60;;;20.20;;
62707;SDS011;48769;51.624;5.886;2023-10-13T02:18:23;35.67;;;20.60;;
62707;SDS011;48769;51.624;5.886;2023-10-13T02:20:54;32.05;;;19.90;;
62707;SDS011;48769;51.624;5.886;2023-10-13T02:23:25;35.83;;;21.77;;
62707;SDS011;48769;51.624;5.886;2023-10-13T02:25:54;34.40;;;22.58;;
62707;SDS011;48769;51.624;5.886;2023-10-13T02:28:29;37.97;;;22.13;;
62707;SDS011;48769;51.624;5.886;2023-10-13T02:31:01;36.33;;;22.42;;
62707;SDS011;48769;51.624;5.886;2023-10-13T02:33:28;38.72;;;22.92;;
62707;SDS011;48769;51.624;5.886;2023-10-13T02:35:56;38.00;;;24.95;;
62707;SDS011;48769;51.624;5.886;2023-10-13T02:38:22;42.67;;;24.63;;
62707;SDS011;48769;51.624;5.886;2023-10-13T02:41:00;41.22;;;25.08;;
62707;SDS011;48769;51.624;5.886;2023-10-13T02:43:36;45.00;;;26.70;;
62707;SDS011;48769;51.624;5.886;2023-10-13T02:46:02;44.53;;;26.83;;
62707;SDS011;48769;51.624;5.886;2023-10-13T02:48:28;45.50;;;28.00;;
62707;SDS011;48769;51.624;5.886;2023-10-13T02:50:59;48.33;;;27.75;;
62707;SDS011;48769;51.624;5.886;2023-10-13T02:53:30;52.55;;;27.85;;
62707;SDS011;48769;51.624;5.886;2023-10-13T02:55:56;47.58;;;28.77;;
62707;SDS011;48769;51.624;5.886;2023-10-13T02:58:29;51.78;;;30.85;;
62707;SDS011;48769;51.624;5.886;2023-10-13T03:01:03;43.72;;;29.60;;
62707;SDS011;48769;51.624;5.886;2023-10-13T03:03:41;53.03;;;30.92;;
62707;SDS011;48769;51.624;5.886;2023-10-13T03:06:10;51.95;;;30.70;;
62707;SDS011;48769;51.624;5.886;2023-10-13T03:08:37;54.72;;;30.73;;
62707;SDS011;48769;51.624;5.886;2023-10-13T03:11:03;54.60;;;31.17;;
62707;SDS011;48769;51.624;5.886;2023-10-13T03:13:30;51.40;;;30.27;;
62707;SDS011;48769;51.624;5.886;2023-10-13T03:15:58;49.40;;;30.90;;
62707;SDS011;48769;51.624;5.886;2023-10-13T03:18:24;52.90;;;30.80;;
62707;SDS011;48769;51.624;5.886;2023-10-13T03:20:49;50.60;;;31.35;;
62707;SDS011;48769;51.624;5.886;2023-10-13T03:23:24;57.50;;;32.55;;
62707;SDS011;48769;51.624;5.886;2023-10-13T03:25:49;62.50;;;31.60;;
62707;SDS011;48769;51.624;5.886;2023-10-13T03:28:15;57.10;;;32.28;;
62707;SDS011;48769;51.624;5.886;2023-10-13T03:30:43;48.85;;;30.73;;
62707;SDS011;48769;51.624;5.886;2023-10-13T03:33:08;52.97;;;31.13;;
62707;SDS011;48769;51.624;5.886;2023-10-13T03:35:36;48.55;;;30.38;;
62707;SDS011;48769;51.624;5.886;2023-10-13T03:38:03;57.55;;;32.75;;
62707;SDS011;48769;51.624;5.886;2023-10-13T03:40:29;54.20;;;32.88;;
62707;SDS011;48769;51.624;5.886;2023-10-13T03:42:55;55.65;;;30.92;;
62707;SDS011;48769;51.624;5.886;2023-10-13T03:45:38;61.53;;;31.48;;
62707;SDS011;48769;51.624;5.886;2023-10-13T03:48:07;58.38;;;33.25;;
62707;SDS011;48769;51.624;5.886;2023-10-13T03:50:53;54.08;;;31.02;;
62707;SDS011;48769;51.624;5.886;2023-10-13T03:53:35;64.93;;;33.08;;
62707;SDS011;48769;51.624;5.886;2023-10-13T03:56:02;61.60;;;33.83;;
62707;SDS011;48769;51.624;5.886;2023-10-13T03:58:40;55.53;;;32.22;;
62707;SDS011;48769;51.624;5.886;2023-10-13T04:01:12;57.28;;;33.58;;
62707;SDS011;48769;51.624;5.886;2023-10-13T04:03:42;57.63;;;33.33;;
62707;SDS011;48769;51.624;5.886;2023-10-13T04:06:28;60.00;;;34.25;;
62707;SDS011;48769;51.624;5.886;2023-10-13T04:09:15;58.20;;;32.90;;
62707;SDS011;48769;51.624;5.886;2023-10-13T04:12:07;64.05;;;36.38;;
62707;SDS011;48769;51.624;5.886;2023-10-13T04:14:52;65.38;;;34.88;;
62707;SDS011;48769;51.624;5.886;2023-10-13T04:17:37;61.60;;;35.25;;
62707;SDS011;48769;51.624;5.886;2023-10-13T04:20:09;64.70;;;35.30;;
62707;SDS011;48769;51.624;5.886;2023-10-13T04:22:35;62.08;;;35.60;;
62707;SDS011;48769;51.624;5.886;2023-10-13T04:25:13;66.38;;;35.28;;
62707;SDS011;48769;51.624;5.886;2023-10-13T04:28:02;61.45;;;35.08;;
62707;SDS011;48769;51.624;5.886;2023-10-13T04:30:47;60.22;;;35.70;;
62707;SDS011;48769;51.624;5.886;2023-10-13T04:33:13;53.15;;;33.67;;
62707;SDS011;48769;51.624;5.886;2023-10-13T04:36:00;64.18;;;36.35;;
62707;SDS011;48769;51.624;5.886;2023-10-13T04:38:38;60.60;;;34.80;;
62707;SDS011;48769;51.624;5.886;2023-10-13T04:41:21;55.80;;;35.20;;
62707;SDS011;48769;51.624;5.886;2023-10-13T04:44:22;62.17;;;35.00;;
62707;SDS011;48769;51.624;5.886;2023-10-13T04:47:06;61.17;;;32.85;;
62707;SDS011;48769;51.624;5.886;2023-10-13T04:49:42;58.45;;;33.42;;
62707;SDS011;48769;51.624;5.886;2023-10-13T04:52:09;57.05;;;32.47;;
62707;SDS011;48769;51.624;5.886;2023-10-13T04:54:44;59.97;;;33.38;;
62707;SDS011;48769;51.624;5.886;2023-10-13T04:57:15;55.58;;;32.05;;
62707;SDS011;48769;51.624;5.886;2023-10-13T05:00:05;56.33;;;32.40;;
62707;SDS011;48769;51.624;5.886;2023-10-13T05:02:40;52.58;;;29.73;;
62707;SDS011;48769;51.624;5.886;2023-10-13T05:05:15;55.40;;;30.77;;
62707;SDS011;48769;51.624;5.886;2023-10-13T05:07:46;56.53;;;29.45;;
62707;SDS011;48769;51.624;5.886;2023-10-13T05:10:30;46.90;;;28.13;;
62707;SDS011;48769;51.624;5.886;2023-10-13T05:13:14;43.45;;;26.63;;
62707;SDS011;48769;51.624;5.886;2023-10-13T05:15:58;49.03;;;27.02;;
62707;SDS011;48769;51.624;5.886;2023-10-13T05:18:42;47.42;;;25.98;;
62707;SDS011;48769;51.624;5.886;2023-10-13T05:21:26;39.13;;;23.42;;
62707;SDS011;48769;51.624;5.886;2023-10-13T05:24:10;36.00;;;22.58;;
62707;SDS011;48769;51.624;5.886;2023-10-13T05:26:54;32.95;;;21.00;;
62707;SDS011;48769;51.624;5.886;2023-10-13T05:29:41;28.45;;;18.20;;
62707;SDS011;48769;51.624;5.886;2023-10-13T05:32:29;29.35;;;18.42;;
62707;SDS011;48769;51.624;5.886;2023-10-13T05:35:14;34.63;;;18.55;;
62707;SDS011;48769;51.624;5.886;2023-10-13T05:37:59;34.58;;;17.35;;
62707;SDS011;48769;51.624;5.886;2023-10-13T05:43:40;24.08;;;15.43;;
62707;SDS011;48769;51.624;5.886;2023-10-13T05:46:24;28.63;;;15.95;;
62707;SDS011;48769;51.624;5.886;2023-10-13T05:48:52;29.27;;;16.23;;
62707;SDS011;48769;51.624;5.886;2023-10-13T05:51:31;24.45;;;16.20;;
62707;SDS011;48769;51.624;5.886;2023-10-13T05:53:58;30.88;;;16.60;;
62707;SDS011;48769;51.624;5.886;2023-10-13T05:56:43;24.88;;;16.92;;
62707;SDS011;48769;51.624;5.886;2023-10-13T05:59:31;26.40;;;15.45;;
62707;SDS011;48769;51.624;5.886;2023-10-13T06:02:16;27.27;;;15.80;;
62707;SDS011;48769;51.624;5.886;2023-10-13T06:05:05;24.92;;;15.45;;
62707;SDS011;48769;51.624;5.886;2023-10-13T06:07:51;24.30;;;15.40;;
62707;SDS011;48769;51.624;5.886;2023-10-13T06:10:36;24.95;;;15.60;;
62707;SDS011;48769;51.624;5.886;2023-10-13T06:13:21;28.45;;;16.30;;
62707;SDS011;48769;51.624;5.886;2023-10-13T06:16:08;26.33;;;16.95;;
62707;SDS011;48769;51.624;5.886;2023-10-13T06:18:53;27.13;;;16.48;;
62707;SDS011;48769;51.624;5.886;2023-10-13T06:21:37;26.23;;;15.98;;
62707;SDS011;48769;51.624;5.886;2023-10-13T06:24:21;28.00;;;16.02;;
62707;SDS011;48769;51.624;5.886;2023-10-13T06:27:05;24.25;;;16.60;;
62707;SDS011;48769;51.624;5.886;2023-10-13T06:29:49;26.02;;;16.95;;
62707;SDS011;48769;51.624;5.886;2023-10-13T06:32:26;29.75;;;17.13;;
62707;SDS011;48769;51.624;5.886;2023-10-13T06:34:52;30.17;;;16.88;;
62707;SDS011;48769;51.624;5.886;2023-10-13T06:37:22;28.95;;;17.48;;
62707;SDS011;48769;51.624;5.886;2023-10-13T06:40:11;31.55;;;16.30;;
62707;SDS011;48769;51.624;5.886;2023-10-13T06:43:07;29.15;;;16.30;;
62707;SDS011;48769;51.624;5.886;2023-10-13T06:45:42;28.77;;;16.02;;
62707;SDS011;48769;51.624;5.886;2023-10-13T06:48:10;29.17;;;15.88;;
62707;SDS011;48769;51.624;5.886;2023-10-13T06:50:48;27.58;;;14.98;;
62707;SDS011;48769;51.624;5.886;2023-10-13T06:53:18;25.55;;;14.13;;
62707;SDS011;48769;51.624;5.886;2023-10-13T06:55:55;24.58;;;14.82;;
62707;SDS011;48769;51.624;5.886;2023-10-13T07:02:07;26.00;;;13.45;;
62707;SDS011;48769;51.624;5.886;2023-10-13T07:04:46;26.63;;;13.02;;
62707;SDS011;48769;51.624;5.886;2023-10-13T07:07:36;25.33;;;14.18;;
62707;SDS011;48769;51.624;5.886;2023-10-13T07:10:07;24.13;;;13.02;;
62707;SDS011;48769;51.624;5.886;2023-10-13T07:12:34;25.95;;;13.50;;
62707;SDS011;48769;51.624;5.886;2023-10-13T07:14:59;26.05;;;13.93;;
62707;SDS011;48769;51.624;5.886;2023-10-13T07:17:45;28.15;;;12.63;;
62707;SDS011;48769;51.624;5.886;2023-10-13T07:20:12;27.98;;;13.40;;
62707;SDS011;48769;51.624;5.886;2023-10-13T07:22:49;27.17;;;13.40;;
62707;SDS011;48769;51.624;5.886;2023-10-13T07:25:31;27.00;;;13.87;;
62707;SDS011;48769;51.624;5.886;2023-10-13T07:28:01;23.10;;;12.73;;
62707;SDS011;48769;51.624;5.886;2023-10-13T07:30:34;30.05;;;13.00;;
62707;SDS011;48769;51.624;5.886;2023-10-13T07:33:18;24.88;;;12.95;;
62707;SDS011;48769;51.624;5.886;2023-10-13T07:35:46;37.45;;;13.85;;
62707;SDS011;48769;51.624;5.886;2023-10-13T07:38:16;26.73;;;13.45;;
62707;SDS011;48769;51.624;5.886;2023-10-13T07:40:42;29.40;;;13.48;;
62707;SDS011;48769;51.624;5.886;2023-10-13T07:43:16;26.90;;;13.50;;
62707;SDS011;48769;51.624;5.886;2023-10-13T07:45:46;33.85;;;13.98;;
62707;SDS011;48769;51.624;5.886;2023-10-13T07:48:23;26.35;;;13.80;;
62707;SDS011;48769;51.624;5.886;2023-10-13T07:51:00;26.35;;;12.98;;
62707;SDS011;48769;51.624;5.886;2023-10-13T07:53:28;31.48;;;13.88;;
62707;SDS011;48769;51.624;5.886;2023-10-13T07:55:59;28.08;;;12.80;;
62707;SDS011;48769;51.624;5.886;2023-10-13T07:58:30;33.35;;;12.88;;
62707;SDS011;48769;51.624;5.886;2023-10-13T08:00:59;30.55;;;13.35;;
62707;SDS011;48769;51.624;5.886;2023-10-13T08:03:41;28.15;;;12.20;;
62707;SDS011;48769;51.624;5.886;2023-10-13T08:06:10;26.40;;;12.10;;
62707;SDS011;48769;51.624;5.886;2023-10-13T08:08:36;28.58;;;13.23;;
62707;SDS011;48769;51.624;5.886;2023-10-13T08:11:06;20.90;;;11.88;;
62707;SDS011;48769;51.624;5.886;2023-10-13T08:13:47;22.43;;;11.20;;
62707;SDS011;48769;51.624;5.886;2023-10-13T08:16:19;30.25;;;10.80;;
62707;SDS011;48769;51.624;5.886;2023-10-13T08:18:54;27.17;;;11.55;;
62707;SDS011;48769;51.624;5.886;2023-10-13T08:21:19;22.83;;;10.93;;
62707;SDS011;48769;51.624;5.886;2023-10-13T08:23:49;26.05;;;12.05;;
62707;SDS011;48769;51.624;5.886;2023-10-13T08:26:27;19.38;;;11.38;;
62707;SDS011;48769;51.624;5.886;2023-10-13T08:29:03;24.55;;;11.20;;
62707;SDS011;48769;51.624;5.886;2023-10-13T08:34:52;20.13;;;10.45;;
62707;SDS011;48769;51.624;5.886;2023-10-13T08:37:38;25.73;;;10.82;;
62707;SDS011;48769;51.624;5.886;2023-10-13T08:40:18;30.10;;;10.07;;
62707;SDS011;48769;51.624;5.886;2023-10-13T08:43:13;25.42;;;11.02;;
62707;SDS011;48769;51.624;5.886;2023-10-13T08:45:40;26.88;;;10.15;;
62707;SDS011;48769;51.624;5.886;2023-10-13T08:53:31;24.88;;;9.32;;
62707;SDS011;48769;51.624;5.886;2023-10-13T08:56:12;22.98;;;9.30;;
62707;SDS011;48769;51.624;5.886;2023-10-13T08:58:38;18.42;;;8.57;;
62707;SDS011;48769;51.624;5.886;2023-10-13T09:01:25;25.23;;;9.23;;
62707;SDS011;48769;51.624;5.886;2023-10-13T09:04:16;22.45;;;9.75;;
62707;SDS011;48769;51.624;5.886;2023-10-13T09:06:43;18.27;;;9.18;;
62707;SDS011;48769;51.624;5.886;2023-10-13T09:09:23;23.73;;;9.95;;
62707;SDS011;48769;51.624;5.886;2023-10-13T09:11:53;21.00;;;8.70;;
62707;SDS011;48769;51.624;5.886;2023-10-13T09:14:33;19.35;;;9.20;;
62707;SDS011;48769;51.624;5.886;2023-10-13T09:17:04;21.77;;;9.60;;
62707;SDS011;48769;51.624;5.886;2023-10-13T09:19:47;25.55;;;9.90;;
62707;SDS011;48769;51.624;5.886;2023-10-13T09:22:20;20.08;;;9.52;;
62707;SDS011;48769;51.624;5.886;2023-10-13T09:25:04;19.10;;;9.10;;
62707;SDS011;48769;51.624;5.886;2023-10-13T09:27:31;18.17;;;8.52;;
62707;SDS011;48769;51.624;5.886;2023-10-13T09:30:01;26.30;;;10.60;;
62707;SDS011;48769;51.624;5.886;2023-10-13T09:32:35;22.88;;;10.23;;
62707;SDS011;48769;51.624;5.886;2023-10-13T09:35:17;19.48;;;8.95;;
62707;SDS011;48769;51.624;5.886;2023-10-13T09:37:44;25.63;;;9.90;;
62707;SDS011;48769;51.624;5.886;2023-10-13T09:40:12;18.90;;;8.85;;
62707;SDS011;48769;51.624;5.886;2023-10-13T09:43:00;20.95;;;8.77;;
62707;SDS011;48769;51.624;5.886;2023-10-13T09:45:32;23.33;;;8.85;;
62707;SDS011;48769;51.624;5.886;2023-10-13T09:48:01;18.73;;;9.48;;
62707;SDS011;48769;51.624;5.886;2023-10-13T09:50:41;20.77;;;10.07;;
62707;SDS011;48769;51.624;5.886;2023-10-13T09:53:09;17.15;;;9.52;;
62707;SDS011;48769;51.624;5.886;2023-10-13T09:55:40;25.45;;;9.80;;
62707;SDS011;48769;51.624;5.886;2023-10-13T09:58:09;26.75;;;9.05;;
62707;SDS011;48769;51.624;5.886;2023-10-13T10:00:44;22.95;;;9.30;;
62707;SDS011;48769;51.624;5.886;2023-10-13T10:03:14;25.33;;;10.10;;
62707;SDS011;48769;51.624;5.886;2023-10-13T10:06:03;15.50;;;8.95;;
62707;SDS011;48769;51.624;5.886;2023-10-13T10:08:30;24.35;;;9.05;;
62707;SDS011;48769;51.624;5.886;2023-10-13T10:16:29;22.60;;;9.32;;
62707;SDS011;48769;51.624;5.886;2023-10-13T10:19:15;22.73;;;9.77;;
62707;SDS011;48769;51.624;5.886;2023-10-13T10:21:40;23.33;;;9.25;;
62707;SDS011;48769;51.624;5.886;2023-10-13T10:24:16;22.40;;;8.70;;
62707;SDS011;48769;51.624;5.886;2023-10-13T10:26:55;19.33;;;9.07;;
62707;SDS011;48769;51.624;5.886;2023-10-13T10:29:21;22.23;;;10.05;;
62707;SDS011;48769;51.624;5.886;2023-10-13T10:31:47;28.17;;;10.45;;
62707;SDS011;48769;51.624;5.886;2023-10-13T10:34:16;22.55;;;9.48;;
62707;SDS011;48769;51.624;5.886;2023-10-13T10:36:56;20.25;;;9.88;;
62707;SDS011;48769;51.624;5.886;2023-10-13T10:39:44;19.77;;;9.65;;
62707;SDS011;48769;51.624;5.886;2023-10-13T10:42:12;27.25;;;9.68;;
62707;SDS011;48769;51.624;5.886;2023-10-13T10:44:47;20.17;;;9.80;;
62707;SDS011;48769;51.624;5.886;2023-10-13T10:47:20;18.90;;;9.57;;
62707;SDS011;48769;51.624;5.886;2023-10-13T10:50:03;20.38;;;8.50;;
62707;SDS011;48769;51.624;5.886;2023-10-13T10:52:34;24.85;;;10.18;;
62707;SDS011;48769;51.624;5.886;2023-10-13T10:55:04;21.63;;;10.02;;
62707;SDS011;48769;51.624;5.886;2023-10-13T10:57:34;29.08;;;9.68;;
62707;SDS011;48769;51.624;5.886;2023-10-13T11:00:17;22.42;;;10.30;;
62707;SDS011;48769;51.624;5.886;2023-10-13T11:02:56;25.90;;;10.10;;
62707;SDS011;48769;51.624;5.886;2023-10-13T11:05:22;22.58;;;9.15;;
62707;SDS011;48769;51.624;5.886;2023-10-13T11:07:54;21.70;;;10.90;;
62707;SDS011;48769;51.624;5.886;2023-10-13T11:10:19;25.00;;;9.90;;
62707;SDS011;48769;51.624;5.886;2023-10-13T11:12:57;23.98;;;10.30;;
62707;SDS011;48769;51.624;5.886;2023-10-13T11:15:46;32.88;;;10.70;;
62707;SDS011;48769;51.624;5.886;2023-10-13T11:18:12;19.13;;;9.00;;
62707;SDS011;48769;51.624;5.886;2023-10-13T11:20:46;21.98;;;9.23;;
62707;SDS011;48769;51.624;5.886;2023-10-13T11:23:15;20.65;;;10.10;;
62707;SDS011;48769;51.624;5.886;2023-10-13T11:25:41;16.65;;;9.30;;
62707;SDS011;48769;51.624;5.886;2023-10-13T11:30:56;22.58;;;9.73;;
62707;SDS011;48769;51.624;5.886;2023-10-13T11:33:35;20.70;;;8.83;;
62707;SDS011;48769;51.624;5.886;2023-10-13T11:36:01;25.27;;;9.10;;
62707;SDS011;48769;51.624;5.886;2023-10-13T11:38:31;15.18;;;8.25;;
62707;SDS011;48769;51.624;5.886;2023-10-13T11:41:16;20.58;;;8.68;;
62707;SDS011;48769;51.624;5.886;2023-10-13T11:43:46;23.73;;;9.30;;
62707;SDS011;48769;51.624;5.886;2023-10-13T11:46:16;20.60;;;8.65;;
62707;SDS011;48769;51.624;5.886;2023-10-13T11:49:03;23.33;;;8.88;;
62707;SDS011;48769;51.624;5.886;2023-10-13T11:51:39;27.23;;;9.27;;
62707;SDS011;48769;51.624;5.886;2023-10-13T11:54:10;26.90;;;9.65;;
62707;SDS011;48769;51.624;5.886;2023-10-13T11:56:37;26.42;;;9.70;;
62707;SDS011;48769;51.624;5.886;2023-10-13T11:59:03;26.95;;;10.05;;
62707;SDS011;48769;51.624;5.886;2023-10-13T12:01:30;23.73;;;8.93;;
62707;SDS011;48769;51.624;5.886;2023-10-13T12:04:15;26.42;;;9.02;;
62707;SDS011;48769;51.624;5.886;2023-10-13T12:07:00;27.13;;;9.15;;
62707;SDS011;48769;51.624;5.886;2023-10-13T12:09:48;24.92;;;8.52;;
62707;SDS011;48769;51.624;5.886;2023-10-13T12:12:27;36.20;;;9.43;;
62707;SDS011;48769;51.624;5.886;2023-10-13T12:14:54;21.42;;;8.32;;
62707;SDS011;48769;51.624;5.886;2023-10-13T12:17:20;21.17;;;9.32;;
62707;SDS011;48769;51.624;5.886;2023-10-13T12:19:53;24.13;;;9.52;;
62707;SDS011;48769;51.624;5.886;2023-10-13T12:22:20;26.30;;;11.82;;
62707;SDS011;48769;51.624;5.886;2023-10-13T12:25:01;20.98;;;8.93;;
62707;SDS011;48769;51.624;5.886;2023-10-13T12:27:30;30.13;;;9.25;;
62707;SDS011;48769;51.624;5.886;2023-10-13T12:30:10;19.58;;;8.52;;
62707;SDS011;48769;51.624;5.886;2023-10-13T12:32:39;26.80;;;9.23;;
62707;SDS011;48769;51.624;5.886;2023-10-13T12:35:10;30.10;;;10.15;;
62707;SDS011;48769;51.624;5.886;2023-10-13T12:37:35;27.05;;;9.45;;
62707;SDS011;48769;51.624;5.886;2023-10-13T12:40:01;30.67;;;9.98;;
62707;SDS011;48769;51.624;5.886;2023-10-13T12:42:47;36.25;;;9.52;;
62707;SDS011;48769;51.624;5.886;2023-10-13T12:48:45;24.23;;;9.20;;
62707;SDS011;48769;51.624;5.886;2023-10-13T12:51:31;24.70;;;9.13;;
62707;SDS011;48769;51.624;5.886;2023-10-13T12:53:57;34.50;;;9.55;;
62707;SDS011;48769;51.624;5.886;2023-10-13T12:56:40;22.25;;;8.40;;
62707;SDS011;48769;51.624;5.886;2023-10-13T12:59:09;24.75;;;8.82;;
62707;SDS011;48769;51.624;5.886;2023-10-13T13:01:38;24.48;;;9.10;;
62707;SDS011;48769;51.624;5.886;2023-10-13T13:04:07;34.17;;;8.88;;
62707;SDS011;48769;51.624;5.886;2023-10-13T13:06:37;21.42;;;9.05;;
62707;SDS011;48769;51.624;5.886;2023-10-13T13:09:05;21.30;;;8.25;;
62707;SDS011;48769;51.624;5.886;2023-10-13T13:11:34;22.83;;;8.95;;
62707;SDS011;48769;51.624;5.886;2023-10-13T13:14:04;25.52;;;9.00;;
62707;SDS011;48769;51.624;5.886;2023-10-13T13:16:33;27.90;;;10.20;;
62707;SDS011;48769;51.624;5.886;2023-10-13T13:18:58;28.23;;;9.05;;
62707;SDS011;48769;51.624;5.886;2023-10-13T13:21:24;24.77;;;8.45;;
62707;SDS011;48769;51.624;5.886;2023-10-13T13:23:50;24.38;;;8.02;;
62707;SDS011;48769;51.624;5.886;2023-10-13T13:26:16;33.17;;;8.90;;
62707;SDS011;48769;51.624;5.886;2023-10-13T13:28:46;17.58;;;7.75;;
62707;SDS011;48769;51.624;5.886;2023-10-13T13:31:22;19.40;;;7.93;;
62707;SDS011;48769;51.624;5.886;2023-10-13T13:33:51;23.48;;;8.90;;
62707;SDS011;48769;51.624;5.886;2023-10-13T13:36:17;22.33;;;8.18;;
62707;SDS011;48769;51.624;5.886;2023-10-13T13:38:44;21.70;;;9.73;;
62707;SDS011;48769;51.624;5.886;2023-10-13T13:41:20;22.00;;;8.15;;
62707;SDS011;48769;51.624;5.886;2023-10-13T13:44:02;25.73;;;8.07;;
62707;SDS011;48769;51.624;5.886;2023-10-13T13:46:38;23.20;;;9.18;;
62707;SDS011;48769;51.624;5.886;2023-10-13T13:49:06;17.95;;;7.80;;
62707;SDS011;48769;51.624;5.886;2023-10-13T13:51:33;28.42;;;8.10;;
62707;SDS011;48769;51.624;5.886;2023-10-13T13:54:03;18.42;;;7.30;;
62707;SDS011;48769;51.624;5.886;2023-10-13T13:56:31;23.23;;;8.20;;
62707;SDS011;48769;51.624;5.886;2023-10-13T13:59:03;24.42;;;7.93;;
62707;SDS011;48769;51.624;5.886;2023-10-13T14:01:33;22.48;;;7.18;;
62707;SDS011;48769;51.624;5.886;2023-10-13T14:04:02;22.35;;;7.82;;
62707;SDS011;48769;51.624;5.886;2023-10-13T14:06:31;22.65;;;8.00;;
62707;SDS011;48769;51.624;5.886;2023-10-13T14:08:58;21.20;;;7.43;;
62707;SDS011;48769;51.624;5.886;2023-10-13T14:11:29;26.77;;;8.65;;
62707;SDS011;48769;51.624;5.886;2023-10-13T14:14:15;22.50;;;8.07;;
62707;SDS011;48769;51.624;5.886;2023-10-13T14:16:50;26.02;;;8.15;;
62707;SDS011;48769;51.624;5.886;2023-10-13T14:19:15;21.05;;;8.15;;
62707;SDS011;48769;51.624;5.886;2023-10-13T14:21:56;24.90;;;8.07;;
62707;SDS011;48769;51.624;5.886;2023-10-13T14:24:22;25.00;;;8.40;;
62707;SDS011;48769;51.624;5.886;2023-10-13T14:26:58;25.83;;;7.80;;
62707;SDS011;48769;51.624;5.886;2023-10-13T14:29:36;23.35;;;7.88;;
62707;SDS011;48769;51.624;5.886;2023-10-13T14:34:49;27.13;;;8.05;;
62707;SDS011;48769;51.624;5.886;2023-10-13T14:37:25;19.17;;;7.22;;
62707;SDS011;48769;51.624;5.886;2023-10-13T14:39:59;19.95;;;7.10;;
62707;SDS011;48769;51.624;5.886;2023-10-13T14:42:25;24.50;;;7.65;;
62707;SDS011;48769;51.624;5.886;2023-10-13T14:44:55;18.85;;;7.95;;
62707;SDS011;48769;51.624;5.886;2023-10-13T14:47:26;23.52;;;7.95;;
62707;SDS011;48769;51.624;5.886;2023-10-13T14:49:56;24.92;;;7.72;;
62707;SDS011;48769;51.624;5.886;2023-10-13T14:52:24;21.42;;;7.20;;
62707;SDS011;48769;51.624;5.886;2023-10-13T14:54:50;26.13;;;7.18;;
62707;SDS011;48769;51.624;5.886;2023-10-13T14:57:20;23.08;;;7.53;;
62707;SDS011;48769;51.624;5.886;2023-10-13T14:59:53;18.05;;;7.43;;
62707;SDS011;48769;51.624;5.886;2023-10-13T15:02:20;22.50;;;8.68;;
62707;SDS011;48769;51.624;5.886;2023-10-13T15:04:46;23.02;;;7.47;;
62707;SDS011;48769;51.624;5.886;2023-10-13T15:07:16;24.20;;;7.60;;
62707;SDS011;48769;51.624;5.886;2023-10-13T15:09:42;24.85;;;7.78;;
62707;SDS011;48769;51.624;5.886;2023-10-13T15:12:11;22.23;;;8.15;;
62707;SDS011;48769;51.624;5.886;2023-10-13T15:14:37;28.00;;;7.60;;
62707;SDS011;48769;51.624;5.886;2023-10-13T15:17:04;14.63;;;7.43;;
62707;SDS011;48769;51.624;5.886;2023-10-13T15:19:31;18.42;;;7.72;;
62707;SDS011;48769;51.624;5.886;2023-10-13T15:22:01;23.90;;;8.95;;
62707;SDS011;48769;51.624;5.886;2023-10-13T15:24:27;20.70;;;8.18;;
62707;SDS011;48769;51.624;5.886;2023-10-13T15:26:53;32.88;;;8.13;;
62707;SDS011;48769;51.624;5.886;2023-10-13T15:29:26;26.98;;;8.65;;
62707;SDS011;48769;51.624;5.886;2023-10-13T15:32:00;14.90;;;6.65;;
62707;SDS011;48769;51.624;5.886;2023-10-13T15:34:31;16.83;;;8.32;;